Time;durP1;ratioP1;P1;durP2;ratioP2;P2;SDS_P1;SDS_P2;PMS_P1;PMS_P2;Temp;Humidity;BMP_temperature;BMP_pressure;BME280_temperature;BME280_humidity;BME280_pressure;Samples;Min_cycle;Max_cycle;Signal;HPM_P1;HPM_P2
2021/08/27 00:01:37;;;;;;;8.30;2.92;;;;;;;;;;10400809;28;20029;-85
2021/08/27 00:06:38;;;;;;;8.67;2.67;;;;;;;;;;10402353;28;20071;-86
2021/08/27 00:11:38;;;;;;;6.77;2.77;;;;;;;;;;10401502;28;20987;-87
2021/08/27 00:16:39;;;;;;;4.63;2.60;;;;;;;;;;10399767;28;20112;-87
2021/08/27 00:21:39;;;;;;;15.83;2.97;;;;;;;;;;10419117;28;20124;-86
2021/08/27 00:26:39;;;;;;;5.90;2.60;;;;;;;;;;10402330;28;20455;-85
2021/08/27 00:31:40;;;;;;;4.10;2.33;;;;;;;;;;10411603;28;20025;-85
2021/08/27 00:36:40;;;;;;;8.00;2.53;;;;;;;;;;10419077;28;20061;-85
2021/08/27 00:41:41;;;;;;;9.73;2.37;;;;;;;;;;10415711;28;20053;-86
2021/08/27 00:46:41;;;;;;;4.53;2.30;;;;;;;;;;10419904;28;20795;-85
2021/08/27 00:51:42;;;;;;;5.27;2.27;;;;;;;;;;10415924;28;20025;-85
2021/08/27 00:56:43;;;;;;;5.65;2.08;;;;;;;;;;10417874;28;20078;-85
2021/08/27 01:01:44;;;;;;;5.57;2.10;;;;;;;;;;10417334;28;20140;-85
2021/08/27 01:06:49;;;;;;;4.63;2.05;;;;;;;;;;10416887;28;20380;-85
2021/08/27 01:12:05;;;;;;;4.65;2.50;;;;;;;;;;10398738;28;20146;-85
2021/08/27 01:17:12;;;;;;;4.28;2.58;;;;;;;;;;10398522;28;20033;-84
2021/08/27 01:22:18;;;;;;;3.83;2.13;;;;;;;;;;10399626;28;20169;-84
2021/08/27 01:27:19;;;;;;;2.60;1.98;;;;;;;;;;10416852;28;20028;-85
2021/08/27 01:32:30;;;;;;;2.10;1.80;;;;;;;;;;10391740;28;20026;-84
2021/08/27 01:37:31;;;;;;;3.00;2.05;;;;;;;;;;10394358;28;20064;-86
2021/08/27 01:42:31;;;;;;;2.58;2.10;;;;;;;;;;10398156;28;20579;-86
2021/08/27 01:47:32;;;;;;;2.22;1.90;;;;;;;;;;10397719;28;20156;-87
2021/08/27 01:52:33;;;;;;;4.18;2.05;;;;;;;;;;10416265;28;20033;-86
2021/08/27 01:57:34;;;;;;;3.05;1.80;;;;;;;;;;10398536;28;20042;-85
2021/08/27 02:02:35;;;;;;;1.52;1.40;;;;;;;;;;10393548;28;20108;-85
2021/08/27 02:07:36;;;;;;;1.90;1.70;;;;;;;;;;10414959;28;20025;-85
2021/08/27 02:12:36;;;;;;;2.67;1.80;;;;;;;;;;10409686;28;20030;-85
2021/08/27 02:17:37;;;;;;;2.33;1.52;;;;;;;;;;10405338;28;20029;-85
2021/08/27 02:22:38;;;;;;;2.35;1.42;;;;;;;;;;10414884;28;20108;-85
2021/08/27 02:27:40;;;;;;;1.60;1.50;;;;;;;;;;10414223;28;20033;-85
2021/08/27 02:32:42;;;;;;;2.25;1.50;;;;;;;;;;10397527;28;20040;-86
2021/08/27 02:37:44;;;;;;;2.88;1.48;;;;;;;;;;10398080;28;20057;-85
2021/08/27 02:42:44;;;;;;;4.32;1.63;;;;;;;;;;10392499;28;20052;-85
2021/08/27 02:47:45;;;;;;;1.90;1.50;;;;;;;;;;10414565;28;20125;-85
2021/08/27 02:52:59;;;;;;;3.50;1.50;;;;;;;;;;10415401;28;20025;-85
2021/08/27 02:58:05;;;;;;;2.35;1.60;;;;;;;;;;10386949;28;20030;-83
2021/08/27 03:03:06;;;;;;;2.30;1.35;;;;;;;;;;10404603;28;20033;-84
2021/08/27 03:08:08;;;;;;;1.50;1.40;;;;;;;;;;10395770;28;20407;-83
2021/08/27 03:13:13;;;;;;;1.67;1.23;;;;;;;;;;10413131;28;20537;-83
2021/08/27 03:18:27;;;;;;;1.38;1.23;;;;;;;;;;10389619;28;20041;-83
2021/08/27 03:23:29;;;;;;;1.38;1.20;;;;;;;;;;10395567;28;20038;-84
2021/08/27 03:28:34;;;;;;;1.23;1.13;;;;;;;;;;10396739;28;20029;-85
2021/08/27 03:33:35;;;;;;;3.58;1.33;;;;;;;;;;10393126;28;20530;-82
2021/08/27 03:38:37;;;;;;;3.85;1.30;;;;;;;;;;10402829;28;20029;-82
2021/08/27 03:43:39;;;;;;;5.90;1.35;;;;;;;;;;10403571;28;20384;-82
2021/08/27 03:48:40;;;;;;;0.90;0.90;;;;;;;;;;10402538;28;20391;-82
2021/08/27 03:53:43;;;;;;;3.72;1.33;;;;;;;;;;10386246;28;20044;-82
2021/08/27 03:58:43;;;;;;;2.30;1.30;;;;;;;;;;10403337;28;20033;-82
2021/08/27 04:03:44;;;;;;;1.15;1.05;;;;;;;;;;10401267;28;20475;-82
2021/08/27 04:08:44;;;;;;;1.60;1.17;;;;;;;;;;10420305;28;20382;-82
2021/08/27 04:13:45;;;;;;;1.58;1.02;;;;;;;;;;10420617;28;20104;-82
2021/08/27 04:18:46;;;;;;;4.57;1.00;;;;;;;;;;10414751;28;20034;-82
2021/08/27 04:23:46;;;;;;;4.00;1.20;;;;;;;;;;10420753;28;20040;-81
2021/08/27 04:28:46;;;;;;;1.10;1.00;;;;;;;;;;10419465;28;20472;-81
2021/08/27 04:33:47;;;;;;;2.57;1.00;;;;;;;;;;10419023;28;20213;-82
2021/08/27 04:38:48;;;;;;;1.40;1.33;;;;;;;;;;10418994;28;20037;-82
2021/08/27 04:43:50;;;;;;;4.15;1.90;;;;;;;;;;10418076;28;20077;-82
2021/08/27 04:48:51;;;;;;;3.92;3.63;;;;;;;;;;10415288;28;20030;-82
2021/08/27 04:53:51;;;;;;;3.63;3.33;;;;;;;;;;10400669;28;20461;-82
2021/08/27 04:58:52;;;;;;;3.35;3.15;;;;;;;;;;10414886;28;20041;-81
2021/08/27 05:03:53;;;;;;;3.40;3.20;;;;;;;;;;10394495;28;20506;-83
2021/08/27 05:08:53;;;;;;;3.55;3.25;;;;;;;;;;10417563;28;20372;-82
2021/08/27 05:13:53;;;;;;;3.30;3.10;;;;;;;;;;10416239;28;20543;-91
2021/08/27 05:18:54;;;;;;;3.47;3.27;;;;;;;;;;10400215;28;20111;-83
2021/08/27 05:23:55;;;;;;;3.30;3.10;;;;;;;;;;10416093;28;20033;-92
2021/08/27 05:28:56;;;;;;;3.33;3.13;;;;;;;;;;10378313;28;20463;-92
2021/08/27 05:33:59;;;;;;;3.22;3.03;;;;;;;;;;10386426;28;20463;-96
2021/08/27 05:38:59;;;;;;;3.67;3.20;;;;;;;;;;10387772;28;20052;-92
2021/08/27 05:44:00;;;;;;;3.57;3.27;;;;;;;;;;10417187;28;20056;-90
2021/08/27 05:49:00;;;;;;;3.40;3.20;;;;;;;;;;10398908;28;20103;-90
2021/08/27 05:54:01;;;;;;;3.40;3.10;;;;;;;;;;10381593;28;20486;-93
2021/08/27 05:59:01;;;;;;;3.50;3.20;;;;;;;;;;10412204;28;20112;-90
2021/08/27 06:04:02;;;;;;;3.28;3.08;;;;;;;;;;10382555;28;20033;-92
2021/08/27 06:09:05;;;;;;;3.30;3.10;;;;;;;;;;10398901;28;20025;-89
2021/08/27 06:14:05;;;;;;;6.95;3.10;;;;;;;;;;10382702;28;20029;-90
2021/08/27 06:19:06;;;;;;;3.53;3.22;;;;;;;;;;10411779;28;20557;-89
2021/08/27 06:24:07;;;;;;;3.20;3.00;;;;;;;;;;10407610;28;20034;-89
2021/08/27 06:29:07;;;;;;;3.20;3.00;;;;;;;;;;10388294;28;20510;-89
2021/08/27 06:34:08;;;;;;;3.50;3.20;;;;;;;;;;10410274;28;20035;-89
2021/08/27 06:39:08;;;;;;;3.30;3.10;;;;;;;;;;10390719;28;20451;-86
2021/08/27 06:44:08;;;;;;;6.77;2.60;;;;;;;;;;10407556;28;20398;-86
2021/08/27 06:49:11;;;;;;;3.10;2.90;;;;;;;;;;10396898;28;20455;-93
2021/08/27 06:54:11;;;;;;;2.97;2.78;;;;;;;;;;10407891;28;20458;-91
2021/08/27 06:59:11;;;;;;;3.00;2.80;;;;;;;;;;10407764;28;20391;-89
2021/08/27 07:04:12;;;;;;;9.83;3.30;;;;;;;;;;10409497;28;20438;-90
2021/08/27 07:09:12;;;;;;;3.33;0.90;;;;;;;;;;10415372;28;20033;-87
2021/08/27 07:14:13;;;;;;;4.43;0.90;;;;;;;;;;10415030;28;20370;-87
2021/08/27 07:19:13;;;;;;;1.23;0.90;;;;;;;;;;10421878;28;20037;-87
2021/08/27 07:24:14;;;;;;;2.00;1.10;;;;;;;;;;10421801;28;20037;-87
2021/08/27 07:29:14;;;;;;;0.70;0.70;;;;;;;;;;10420924;28;20117;-87
2021/08/27 07:34:14;;;;;;;1.33;0.90;;;;;;;;;;10403919;28;20466;-87
2021/08/27 07:39:15;;;;;;;0.73;0.73;;;;;;;;;;10421133;28;20570;-87
2021/08/27 07:44:15;;;;;;;1.60;1.00;;;;;;;;;;10411967;23;20852;-86
2021/08/27 07:49:16;;;;;;;1.13;0.90;;;;;;;;;;10408012;28;20050;-89
2021/08/27 07:54:17;;;;;;;1.57;0.80;;;;;;;;;;10384743;28;20490;-89
2021/08/27 07:59:17;;;;;;;1.20;1.02;;;;;;;;;;10410938;28;20439;-88
2021/08/27 08:04:18;;;;;;;1.15;0.85;;;;;;;;;;10388839;28;20025;-87
2021/08/27 08:09:19;;;;;;;2.28;0.93;;;;;;;;;;10402167;28;20025;-89
2021/08/27 08:14:19;;;;;;;1.37;1.00;;;;;;;;;;10402173;28;20563;-89
2021/08/27 08:19:20;;;;;;;4.05;0.95;;;;;;;;;;10384745;28;20443;-89
2021/08/27 08:24:21;;;;;;;1.15;0.90;;;;;;;;;;10402222;28;20035;-86
2021/08/27 08:29:21;;;;;;;1.10;1.00;;;;;;;;;;10401197;28;20116;-90
2021/08/27 08:34:22;;;;;;;1.53;0.90;;;;;;;;;;10401817;28;20107;-90
2021/08/27 08:39:22;;;;;;;1.30;0.90;;;;;;;;;;10401513;28;20048;-89
2021/08/27 08:44:22;;;;;;;1.13;1.00;;;;;;;;;;10384801;28;20041;-89
2021/08/27 08:49:28;;;;;;;1.73;0.90;;;;;;;;;;10400985;28;20057;-88
2021/08/27 08:54:32;;;;;;;1.20;0.80;;;;;;;;;;10384680;28;20477;-88
2021/08/27 08:59:34;;;;;;;0.90;0.90;;;;;;;;;;10400670;28;20033;-87
2021/08/27 09:04:35;;;;;;;2.05;1.08;;;;;;;;;;10418099;28;20033;-87
2021/08/27 09:09:36;;;;;;;0.80;0.80;;;;;;;;;;10382592;28;20457;-88
2021/08/27 09:14:37;;;;;;;2.03;0.90;;;;;;;;;;10417284;28;20097;-89
2021/08/27 09:19:50;;;;;;;1.00;0.90;;;;;;;;;;10399968;28;20093;-87
2021/08/27 09:25:07;;;;;;;1.42;0.90;;;;;;;;;;10417094;28;20033;-88
2021/08/27 09:30:09;;;;;;;1.33;0.93;;;;;;;;;;10409110;28;20434;-88
2021/08/27 09:35:15;;;;;;;4.18;1.15;;;;;;;;;;10398232;28;20434;-88
2021/08/27 09:40:27;;;;;;;1.10;1.00;;;;;;;;;;10398861;28;20136;-88
2021/08/27 09:45:42;;;;;;;1.13;0.80;;;;;;;;;;10400521;28;20038;-88
2021/08/27 09:50:49;;;;;;;1.20;1.00;;;;;;;;;;10400584;28;20037;-88
2021/08/27 09:55:58;;;;;;;1.30;1.20;;;;;;;;;;10384280;28;20477;-89
2021/08/27 10:01:04;;;;;;;3.42;1.15;;;;;;;;;;10380146;28;20475;-88
2021/08/27 10:06:06;;;;;;;3.85;1.45;;;;;;;;;;10416161;28;20125;-89
2021/08/27 10:11:21;;;;;;;3.22;1.50;;;;;;;;;;10405808;28;20464;-89
2021/08/27 10:16:21;;;;;;;3.78;1.42;;;;;;;;;;10380627;28;20033;-91
2021/08/27 10:21:22;;;;;;;2.80;1.40;;;;;;;;;;10397928;28;20029;-90
2021/08/27 10:26:27;;;;;;;2.55;1.30;;;;;;;;;;10397698;28;20994;-90
2021/08/27 10:31:45;;;;;;;4.00;1.58;;;;;;;;;;10381566;28;20037;-90
2021/08/27 10:36:47;;;;;;;2.25;1.27;;;;;;;;;;10381235;28;20061;-89
2021/08/27 10:41:48;;;;;;;2.25;1.20;;;;;;;;;;10380124;28;20056;-89
2021/08/27 10:46:48;;;;;;;2.67;1.67;;;;;;;;;;10404775;28;20464;-89
2021/08/27 10:51:53;;;;;;;3.83;1.50;;;;;;;;;;10423143;28;20032;-89
2021/08/27 10:56:54;;;;;;;1.70;1.35;;;;;;;;;;10399180;28;20395;-89
2021/08/27 11:01:57;;;;;;;3.67;1.20;;;;;;;;;;10417256;28;20037;-88
2021/08/27 11:07:01;;;;;;;1.60;1.30;;;;;;;;;;10426680;28;20030;-89
2021/08/27 11:12:07;;;;;;;1.70;1.42;;;;;;;;;;10389117;28;20444;-89
2021/08/27 11:17:10;;;;;;;2.15;1.20;;;;;;;;;;10421297;28;20045;-89
2021/08/27 11:22:10;;;;;;;1.92;1.50;;;;;;;;;;10403821;28;20116;-89
2021/08/27 11:27:20;;;;;;;3.28;1.40;;;;;;;;;;10421994;28;20033;-89
2021/08/27 11:32:26;;;;;;;2.55;1.50;;;;;;;;;;10388220;28;20033;-90
2021/08/27 11:37:37;;;;;;;4.43;1.40;;;;;;;;;;10402336;28;20042;-90
2021/08/27 11:42:38;;;;;;;2.00;1.30;;;;;;;;;;10375968;28;20049;-89
2021/08/27 11:47:43;;;;;;;5.43;1.50;;;;;;;;;;10398341;28;20469;-90
2021/08/27 11:52:43;;;;;;;1.83;1.33;;;;;;;;;;10381611;28;20129;-90
2021/08/27 11:57:49;;;;;;;1.63;1.30;;;;;;;;;;10403528;28;20129;-89
2021/08/27 12:02:53;;;;;;;1.80;1.30;;;;;;;;;;10402096;28;20021;-90
2021/08/27 12:08:15;;;;;;;1.67;1.35;;;;;;;;;;10399330;28;20055;-89
2021/08/27 12:13:15;;;;;;;2.33;1.48;;;;;;;;;;10387925;28;20064;-89
2021/08/27 12:18:17;;;;;;;4.20;1.70;;;;;;;;;;10413702;28;20037;-90
2021/08/27 12:23:20;;;;;;;2.97;1.38;;;;;;;;;;10380761;28;20460;-84
2021/08/27 12:28:32;;;;;;;1.65;1.40;;;;;;;;;;10389420;28;20071;-85
2021/08/27 12:33:38;;;;;;;1.48;1.30;;;;;;;;;;10391037;28;20029;-84
2021/08/27 12:38:39;;;;;;;3.10;1.40;;;;;;;;;;10386768;28;20086;-84
2021/08/27 12:43:40;;;;;;;1.70;1.30;;;;;;;;;;10397292;28;20049;-82
2021/08/27 12:48:41;;;;;;;2.45;1.35;;;;;;;;;;10414273;28;20041;-92
2021/08/27 12:53:42;;;;;;;1.73;1.30;;;;;;;;;;10384963;28;20029;-89
2021/08/27 12:58:44;;;;;;;4.40;1.58;;;;;;;;;;10392597;28;20033;-90
2021/08/27 13:03:47;;;;;;;2.30;1.52;;;;;;;;;;10401184;28;20510;-91
2021/08/27 13:09:13;;;;;;;4.80;1.63;;;;;;;;;;10418137;28;20028;-90
2021/08/27 13:14:27;;;;;;;3.75;1.85;;;;;;;;;;10417801;28;20516;-89
2021/08/27 13:19:50;;;;;;;5.15;1.88;;;;;;;;;;10416690;28;20384;-88
2021/08/27 13:25:04;;;;;;;3.22;1.73;;;;;;;;;;10417675;28;20493;-90
2021/08/27 13:30:12;;;;;;;4.25;1.90;;;;;;;;;;10404075;28;20124;-89
2021/08/27 13:35:17;;;;;;;3.88;1.50;;;;;;;;;;10400770;28;20052;-91
2021/08/27 13:40:20;;;;;;;12.25;2.00;;;;;;;;;;10406350;28;20125;-91
2021/08/27 13:45:20;;;;;;;7.68;2.03;;;;;;;;;;10400611;28;20033;-90
2021/08/27 13:50:20;;;;;;;5.45;1.88;;;;;;;;;;10379786;28;20033;-89
2021/08/27 13:55:23;;;;;;;8.63;2.03;;;;;;;;;;10409717;28;20473;-91
2021/08/27 14:00:24;;;;;;;3.40;1.73;;;;;;;;;;10376769;28;20112;-88
2021/08/27 14:05:25;;;;;;;9.60;2.10;;;;;;;;;;10385953;28;20120;-91
2021/08/27 14:10:26;;;;;;;3.97;1.90;;;;;;;;;;10382928;28;20041;-91
2021/08/27 14:20:46;;;;;;;6.55;1.50;;;;;;;;;;10399274;28;20419;-91
2021/08/27 14:25:47;;;;;;;5.68;1.60;;;;;;;;;;10378404;28;20120;-92
2021/08/27 14:30:49;;;;;;;8.15;1.70;;;;;;;;;;10376299;28;20549;-92
2021/08/27 14:35:50;;;;;;;4.93;1.92;;;;;;;;;;10413261;28;20053;-92
2021/08/27 14:40:51;;;;;;;7.43;1.73;;;;;;;;;;10396074;28;20537;-89
2021/08/27 14:45:51;;;;;;;6.07;1.73;;;;;;;;;;10384184;28;20056;-90
2021/08/27 14:50:52;;;;;;;2.70;1.57;;;;;;;;;;10415301;28;20036;-90
2021/08/27 14:55:52;;;;;;;3.73;1.70;;;;;;;;;;10376819;28;20033;-90
2021/08/27 15:00:53;;;;;;;4.73;1.80;;;;;;;;;;10397341;28;20040;-91
2021/08/27 15:05:54;;;;;;;2.13;1.70;;;;;;;;;;10382944;28;20029;-91
2021/08/27 15:10:54;;;;;;;3.20;1.52;;;;;;;;;;10376182;28;20017;-89
2021/08/27 15:15:55;;;;;;;5.40;1.80;;;;;;;;;;10398344;28;20033;-91
2021/08/27 15:20:56;;;;;;;2.33;1.60;;;;;;;;;;10396770;28;20447;-91
2021/08/27 15:25:56;;;;;;;4.05;1.70;;;;;;;;;;10380796;28;20022;-90
2021/08/27 15:31:01;;;;;;;1.90;1.57;;;;;;;;;;10404148;28;20067;-88
2021/08/27 15:36:02;;;;;;;2.40;1.75;;;;;;;;;;10421727;28;20451;-87
2021/08/27 15:41:02;;;;;;;2.10;1.35;;;;;;;;;;10413166;28;20041;-88
2021/08/27 15:46:02;;;;;;;4.03;1.50;;;;;;;;;;10404314;28;20033;-88
2021/08/27 15:51:03;;;;;;;3.53;1.60;;;;;;;;;;10419026;28;20055;-90
2021/08/27 15:56:04;;;;;;;1.60;1.40;;;;;;;;;;10404269;28;20447;-89
2021/08/27 16:01:04;;;;;;;2.13;1.55;;;;;;;;;;10386952;28;20036;-94
2021/08/27 16:06:06;;;;;;;2.33;1.20;;;;;;;;;;10403538;28;20029;-94
2021/08/27 16:11:07;;;;;;;5.65;1.58;;;;;;;;;;10383008;28;20029;-91
2021/08/27 16:16:09;;;;;;;3.73;1.67;;;;;;;;;;10388109;28;20079;-96
2021/08/27 16:21:09;;;;;;;4.90;1.60;;;;;;;;;;10373087;28;20465;-95
2021/08/27 16:26:10;;;;;;;2.38;1.33;;;;;;;;;;10381291;28;20114;-94
2021/08/27 16:31:11;;;;;;;1.40;1.20;;;;;;;;;;10379736;28;20029;-94
2021/08/27 16:36:11;;;;;;;1.52;1.30;;;;;;;;;;10371548;28;20440;-94
2021/08/27 16:41:14;;;;;;;2.08;1.20;;;;;;;;;;10410379;28;20124;-94
2021/08/27 16:46:15;;;;;;;2.67;1.38;;;;;;;;;;10393746;28;20491;-94
2021/08/27 16:51:16;;;;;;;4.85;1.52;;;;;;;;;;10379105;28;20116;-94
2021/08/27 16:56:16;;;;;;;1.77;1.38;;;;;;;;;;10381967;28;20032;-94
2021/08/27 17:01:17;;;;;;;2.15;1.58;;;;;;;;;;10355991;28;20503;-94
2021/08/27 17:06:17;;;;;;;1.30;1.15;;;;;;;;;;10381414;28;20176;-94
2021/08/27 17:11:18;;;;;;;2.95;1.40;;;;;;;;;;10384086;28;20371;-94
2021/08/27 17:16:18;;;;;;;1.90;1.25;;;;;;;;;;10377558;28;20022;-95
2021/08/27 17:21:19;;;;;;;1.75;1.30;;;;;;;;;;10384720;28;20425;-94
2021/08/27 17:26:19;;;;;;;1.40;1.23;;;;;;;;;;10381641;28;20125;-94
2021/08/27 17:31:20;;;;;;;3.03;1.30;;;;;;;;;;10380639;28;20523;-95
2021/08/27 17:36:21;;;;;;;1.75;1.55;;;;;;;;;;10381807;28;20034;-95
2021/08/27 17:41:21;;;;;;;2.03;1.40;;;;;;;;;;10378703;28;20045;-95
2021/08/27 17:46:21;;;;;;;1.70;1.40;;;;;;;;;;10380789;28;20131;-95
2021/08/27 17:51:23;;;;;;;1.58;1.48;;;;;;;;;;10379898;28;20033;-95
2021/08/27 17:56:24;;;;;;;1.90;1.50;;;;;;;;;;10380896;28;20022;-95
2021/08/27 18:01:24;;;;;;;1.52;1.38;;;;;;;;;;10377616;28;20111;-95
2021/08/27 18:06:25;;;;;;;2.00;1.30;;;;;;;;;;10383051;28;20083;-94
2021/08/27 18:11:25;;;;;;;4.35;1.40;;;;;;;;;;10382496;28;20459;-93
2021/08/27 18:16:26;;;;;;;1.75;1.30;;;;;;;;;;10382141;28;20029;-93
2021/08/27 18:21:30;;;;;;;1.10;1.00;;;;;;;;;;10382438;28;20033;-94
2021/08/27 18:26:40;;;;;;;1.30;1.20;;;;;;;;;;10380676;28;20030;-94
2021/08/27 19:40:21;;;;;;;10.95;2.72;;;;;;;;;;10535206;23;20052;31
2021/08/27 19:45:21;;;;;;;5.60;2.63;;;;;;;;;;10216495;29;20017;-87
2021/08/27 19:50:23;;;;;;;9.63;2.80;;;;;;;;;;10219438;29;20135;-87
2021/08/27 19:55:23;;;;;;;5.25;2.65;;;;;;;;;;10228926;29;20046;-86
2021/08/27 20:00:24;;;;;;;5.00;2.40;;;;;;;;;;10232977;29;20056;-85
2021/08/27 20:05:24;;;;;;;6.53;2.70;;;;;;;;;;10216001;29;20195;-84
2021/08/27 20:10:24;;;;;;;6.50;2.50;;;;;;;;;;10213566;29;20530;-84
2021/08/27 20:15:25;;;;;;;6.10;3.00;;;;;;;;;;10226098;29;20047;-84
2021/08/27 20:20:25;;;;;;;7.37;3.00;;;;;;;;;;10223713;29;20434;-86
2021/08/27 20:25:26;;;;;;;14.38;3.35;;;;;;;;;;10225228;29;20492;-85
2021/08/27 20:30:26;;;;;;;10.48;3.40;;;;;;;;;;10222674;29;20055;-85
2021/08/27 20:35:27;;;;;;;9.10;3.63;;;;;;;;;;10222662;29;20067;-85
2021/08/27 20:40:27;;;;;;;8.35;3.15;;;;;;;;;;10226910;29;20050;-85
2021/08/27 20:45:28;;;;;;;7.18;3.35;;;;;;;;;;10227873;29;20036;-86
2021/08/27 20:50:28;;;;;;;8.30;3.77;;;;;;;;;;10224970;29;20122;-86
2021/08/27 20:55:29;;;;;;;6.55;3.50;;;;;;;;;;10221575;29;20556;-85
2021/08/27 21:00:30;;;;;;;8.27;3.20;;;;;;;;;;10221620;29;20044;-85
2021/08/27 21:05:30;;;;;;;5.40;3.42;;;;;;;;;;10225806;29;20044;-85
2021/08/27 21:10:32;;;;;;;6.55;3.33;;;;;;;;;;10230552;29;20032;-86
2021/08/27 21:15:32;;;;;;;6.65;3.47;;;;;;;;;;10229996;29;20122;-85
2021/08/27 21:20:32;;;;;;;6.13;3.03;;;;;;;;;;10228710;29;20131;-85
2021/08/27 21:25:33;;;;;;;9.07;3.67;;;;;;;;;;10231959;29;20443;-85
2021/08/27 21:30:33;;;;;;;6.90;3.17;;;;;;;;;;10243254;28;20556;-86
2021/08/27 21:35:34;;;;;;;7.87;3.00;;;;;;;;;;10238802;29;20378;-85
2021/08/27 21:40:34;;;;;;;5.63;2.92;;;;;;;;;;10256776;29;20051;-85
2021/08/27 21:45:35;;;;;;;5.90;3.00;;;;;;;;;;10245856;29;20085;-87
2021/08/27 21:50:35;;;;;;;6.70;3.38;;;;;;;;;;10256334;29;20995;-82
2021/08/27 21:55:35;;;;;;;12.63;3.30;;;;;;;;;;10236772;29;20089;-87
2021/08/27 22:00:36;;;;;;;7.00;3.47;;;;;;;;;;10264239;29;20449;-90
2021/08/27 22:05:36;;;;;;;4.63;3.00;;;;;;;;;;10227759;29;20043;-91
2021/08/27 22:10:37;;;;;;;9.07;3.10;;;;;;;;;;10262729;29;20616;-90
2021/08/27 22:15:37;;;;;;;8.57;3.47;;;;;;;;;;10235004;29;20067;-91
2021/08/27 22:20:39;;;;;;;6.57;3.10;;;;;;;;;;10259418;29;20461;-90
2021/08/27 22:25:40;;;;;;;9.15;3.10;;;;;;;;;;10233312;29;20047;-90
2021/08/27 22:30:41;;;;;;;7.90;3.03;;;;;;;;;;10248637;29;20063;-91
2021/08/27 22:35:42;;;;;;;7.35;3.55;;;;;;;;;;10245037;29;20534;-90
2021/08/27 22:40:42;;;;;;;6.53;3.40;;;;;;;;;;10245905;28;20491;-88
2021/08/27 22:45:43;;;;;;;5.30;2.88;;;;;;;;;;10231684;29;20047;-90
2021/08/27 22:50:43;;;;;;;6.67;2.97;;;;;;;;;;10231735;29;20036;-87
2021/08/27 22:55:44;;;;;;;6.53;3.33;;;;;;;;;;10230519;29;20024;-89
2021/08/27 23:00:44;;;;;;;6.20;3.42;;;;;;;;;;10211608;29;20471;-89
2021/08/27 23:05:44;;;;;;;4.07;2.73;;;;;;;;;;10228706;29;20038;-88
2021/08/27 23:10:45;;;;;;;5.73;3.33;;;;;;;;;;10230715;29;20035;-90
2021/08/27 23:15:45;;;;;;;7.93;2.70;;;;;;;;;;10250762;29;20458;-85
2021/08/27 23:20:45;;;;;;;15.47;3.07;;;;;;;;;;10246800;29;20036;-87
2021/08/27 23:25:46;;;;;;;4.27;2.90;;;;;;;;;;10256020;29;20066;-87
2021/08/27 23:30:47;;;;;;;8.33;3.60;;;;;;;;;;10260501;29;20050;-85
2021/08/27 23:35:47;;;;;;;5.25;3.42;;;;;;;;;;10259115;29;20409;-86
2021/08/27 23:40:47;;;;;;;4.78;3.42;;;;;;;;;;10256390;28;20110;-86
2021/08/27 23:45:48;;;;;;;4.20;2.90;;;;;;;;;;10218659;29;20074;-87
2021/08/27 23:50:48;;;;;;;4.60;3.10;;;;;;;;;;10256611;29;20122;-88
2021/08/27 23:55:49;;;;;;;4.83;2.73;;;;;;;;;;10241307;29;20102;-88
